Weather observations for the past three days for
Columbus Air Force Base
Imperial (Metric)
Date Time (cdt) Wind (mph) Vis. (mi.) Weather Sky Cond. Temperature (ºF) Relative Humidity Wind Chill (°F) Heat Index (°F) Pressure Precipitation (in)
Air Dwpt 6 hour altimeter (in) sea level (mb) 1 hr 3 hr 6 hr
Max. Min.
02 19:55 W 5 10.00 Fair CLR 58.3 46.9 66% 30 1016.1
02 18:55 NW 8 10.00 Fair CLR 67.5 40.3 73.4 67.5 37% 29.97 1015.1
02 17:55 NW 9 10.00 Fair CLR 70 38.8 32% 29.97 1015.1
02 16:55 W 16 10.00 A Few Clouds FEW085 71.4 37.6 29% 29.98 1015.4
02 15:55 NW 17 10.00 A Few Clouds FEW080 70.3 37.4 30% 29.98 1015.4
02 14:55 NW 10 10.00 A Few Clouds FEW080 71.8 38.7 30% 29.99 1015.7
02 13:55 NW 18 G 23 6.00 Fair with Haze CLR 71.4 37.6 29% 30 1016.0
02 12:55 N 10 3.00 Fair with Haze CLR 70.2 36.3 70.7 53.6 29% 30.01 1016.4
02 11:55 N 9 10.00 Fair CLR 68.5 38.3 33% 30.03 1017.1
02 10:55 N 15 10.00 Fair CLR 66.2 37.8 35% 30.03 1017.1
02 09:55 N 9 10.00 Fair CLR 62.8 39.9 43% 30.03 1017.1
02 08:55 N 9 10.00 Overcast OVC150 58.8 40.3 50% 30.01 1016.4
02 07:55 N 10 10.00 Overcast BKN140 OVC160 56.8 40.8 55% 29.99 1015.7
02 06:55 N 6 10.00 Overcast BKN140 OVC160 53.6 43.3 59.4 52 68% 29.97 1015.1
02 04:55 N 6 10.00 Overcast BKN140 OVC160 55.2 41.2 59% 29.94 1014.0
02 03:55 N 8 10.00 Overcast OVC055 57 40.1 53% 29.94 1014.0
02 02:55 N 7 10.00 Partly Cloudy FEW090 FEW110 SCT130 57.4 41.4 55% 29.94 1014.0
02 01:55 N 6 10.00 Mostly Cloudy FEW075 SCT090 BKN110 58.3 43.2 57% 29.94 1014.0
02 00:55 NW 9 10.00 Mostly Cloudy BKN100 59.4 45.5 60.8 58.6 60% 29.97 1015.0
01 23:55 N 7 10.00 Mostly Cloudy BKN110 59.7 50.4 71% 29.95 1014.4
01 22:55 NW 6 10.00 Mostly Cloudy BKN110 58.8 54 84% 29.93 1013.7
01 21:55 NW 3 10.00 Overcast OVC120 59 53.8 83% 29.93 1013.7
01 20:55 NW 3 10.00 Overcast OVC110 59 55.4 88% 29.93 1013.7
01 19:55 Calm 10.00 Mostly Cloudy FEW095 BKN120 60.1 54.1 81% 29.92 1013.4
01 18:55 Calm 10.00 Mostly Cloudy BKN110 61 54.7 65.8 61 80% 29.91 1013.0
01 17:55 N 3 10.00 Partly Cloudy SCT100 62.4 50.5 65% 29.91 1013.0
01 16:55 N 8 10.00 Partly Cloudy SCT110 63.3 47.8 57% 29.89 1012.3
01 15:55 N 9 10.00 Mostly Cloudy BKN100 64.2 47.3 54% 29.89 1012.3
01 14:55 N 8 10.00 Mostly Cloudy SCT110 BKN140 BKN170 65.5 45.3 48% 29.93 1013.7
01 13:55 NW 7 10.00 Mostly Cloudy BKN085 64 46.6 53% 29.98 1015.4
01 12:55 N 7 10.00 Mostly Cloudy SCT100 BKN120 64.2 48.7 64.9 55.9 57% 29.96 1014.7
01 11:55 N 6 10.00 Mostly Cloudy SCT100 SCT120 BKN150 BKN170 63.1 50.4 63% 29.97 1015.1
01 10:55 NW 3 10.00 Mostly Cloudy BKN120 60.8 48.9 65% 29.99 1015.7
01 09:55 N 7 10.00 Overcast OVC130 58.5 49.5 72% 29.97 1015.1
01 08:55 NW 6 10.00 Mostly Cloudy BKN110 57.6 50.7 78% 29.97 1015.1
01 07:55 N 7 10.00 Overcast OVC100 56.5 50 79% 29.95 1014.4
01 06:55 N 5 10.00 Overcast OVC095 56.1 50.7 59.2 55.4 82% 29.93 1013.7
01 05:55 Calm 10.00 Overcast OVC100 56.1 51.1 83% 29.91 1013.0
01 04:55 N 3 10.00 Mostly Cloudy SCT100 BKN120 55.9 51.1 84% 29.92 1013.3
01 03:55 N 5 10.00 Overcast OVC120 56.5 50.7 81% 29.91 1013.0
01 02:55 N 3 10.00 Partly Cloudy SCT180 55.4 51.6 87% 29.91 1013.0
01 01:55 NW 3 10.00 Mostly Cloudy BKN170 57.4 50.2 77% 29.92 1013.3
01 00:55 N 5 10.00 Overcast OVC160 59.4 50.4 64.8 58.5 72% 29.93 1013.7
30 23:55 N 3 10.00 Overcast OVC160 58.6 53.4 83% 29.93 1013.7
30 22:55 Calm 10.00 Overcast BKN150 OVC170 60.3 52 74% 29.93 1013.7
30 21:55 N 5 10.00 Mostly Cloudy BKN150 61.3 53.8 76% 29.92 1013.3
30 20:55 N 3 10.00 Mostly Cloudy BKN130 BKN160 61.3 54.1 77% 29.93 1013.7
30 19:55 N 3 10.00 Mostly Cloudy BKN150 62.8 54 73% 29.9 1012.7
30 18:55 N 3 10.00 Mostly Cloudy BKN150 64.8 51.8 72.9 64.6 63% 29.9 1012.7
30 17:55 N 7 10.00 Mostly Cloudy BKN160 66.9 50.2 55% 29.88 1012.0
30 16:55 N 9 10.00 Mostly Cloudy FEW130 SCT170 BKN190 68.5 50.2 52% 29.89 1012.3
30 15:55 N 12 10.00 Partly Cloudy FEW160 SCT200 69.8 49.8 49% 29.89 1012.3
30 14:55 NW 14 10.00 Mostly Cloudy SCT180 BKN220 72.1 52 49% 29.91 1013.0
30 13:55 N 9 10.00 Overcast OVC140 71.4 51.3 49% 29.91 1012.9
30 12:55 N 10 10.00 A Few Clouds FEW150 69.8 52.3 69.8 58.8 54% 29.93 1013.6
30 11:55 N 10 10.00 Partly Cloudy FEW130 SCT200 67.5 52.2 58% 29.95 1014.3
30 10:55 N 7 10.00 Partly Cloudy FEW100 SCT150 65.7 51.4 60% 29.96 1014.6
30 09:55 N 12 10.00 Fair CLR 64.4 51.4 63% 29.95 1014.3
30 08:55 N 10 10.00 Overcast OVC080 60.4 52.5 75% 29.94 1014.0
30 07:55 N 13 10.00 Overcast OVC075 58.8 52.7 80% 29.93 1013.6
30 06:55 N 10 10.00 Overcast FEW012 FEW017 OVC065 60.1 56.1 63.9 60.1 87% 29.92 1013.3 0.19
30 05:55 N 5 10.00 Overcast SCT009 BKN037 OVC046 61 58.6 92% 29.89 1012.3
30 04:55 N 8 10.00 Overcast OVC042 61.5 58.8 91% 29.89 1012.2
30 03:55 NW 6 10.00 Overcast FEW019 OVC037 61.2 59.4 94% 29.88 1011.9 0.18 0.19
30 02:55 N 5 10.00 Light Rain BKN012 OVC034 62.1 58.8 89% 29.87 1011.6
30 01:55 N 12 10.00 Overcast BKN010 BKN019 OVC028 63 60.6 92% 29.86 1011.2 0.01
30 00:55 NW 8 10.00 Overcast OVC008 64 61.7 75.6 64 92% 29.88 1011.9 0.06 0.09
29 23:55 W 7 7.00 Light Rain FEW013 OVC023 65.8 63.1 91% 29.87 1011.6 0.03
29 22:55 N 7 6.00 Light Rain FEW021 SCT028 OVC065 69.4 62.2 78% 29.86 1011.2
29 21:55 NW 6 10.00 Mostly Cloudy SCT023 BKN065 70.9 64 79% 29.87 1011.6
29 20:55 NE 5 10.00 Overcast BKN024 OVC037 72.1 64 76% 29.87 1011.6
Date Time (cdt) Wind (mph) Vis. (mi.) Weather Sky Cond. Air Dwpt Max. Min. Relative Humidity Wind Chill (°F) Heat Index (°F) altimeter (in) sea level (mb) 1 hr 3 hr 6 hr
6 hour
Temperature (ºF) Pressure Precipitation (in)